Time;durP1;ratioP1;P1;durP2;ratioP2;P2;SDS_P1;SDS_P2;PMS_P1;PMS_P2;Temp;Humidity;BMP_temperature;BMP_pressure;BME280_temperature;BME280_humidity;BME280_pressure;Samples;Min_cycle;Max_cycle;Signal;HPM_P1;HPM_P2
2022/01/11 00:00:15;;;;;;;;;;;;;;;0.54;93.91895;103079.5;;;;-83
2022/01/11 00:04:37;;;;;;;18.6;6.7;;;;;;;;;;;;;-84
2022/01/11 00:05:21;;;;;;;;;;;;;;;0.52;93.91309;103076.6;;;;-85
2022/01/11 00:10:22;;;;;;;;;;;;;;;0.5;93.90918;103074;;;;-84
2022/01/11 00:15:14;;;;;;;;;;;;;;;0.48;93.92676;103068.7;;;;-85
2022/01/11 00:20:17;;;;;;;;;;;;;;;0.46;93.94629;103080.7;;;;-84
2022/01/11 00:25:14;;;;;;;;;;;;;;;0.44;93.91895;103084.9;;;;-83
2022/01/11 00:30:14;;;;;;;;;;;;;;;0.43;93.89551;103085;;;;-84
2022/01/11 00:34:48;;;;;;;14.9;6.1;;;;;;;;;;;;;-82
2022/01/11 00:35:16;;;;;;;;;;;;;;;0.41;93.89063;103085;;;;-82
2022/01/11 00:40:15;;;;;;;;;;;;;;;0.4;93.87793;103076.7;;;;-84
2022/01/11 00:45:15;;;;;;;;;;;;;;;0.38;93.87402;103071.2;;;;-85
2022/01/11 00:50:14;;;;;;;;;;;;;;;0.37;93.8916;103073.6;;;;-84
2022/01/11 00:55:15;;;;;;;;;;;;;;;0.35;93.87695;103075;;;;-83
2022/01/11 01:00:16;;;;;;;;;;;;;;;0.35;93.94141;103079.3;;;;-84
2022/01/11 01:04:34;;;;;;;17.1;6.9;;;;;;;;;;;;;-82
2022/01/11 01:05:17;;;;;;;;;;;;;;;0.33;93.94824;103084.2;;;;-84
2022/01/11 01:10:25;;;;;;;;;;;;;;;0.31;93.93359;103089.8;;;;-84
2022/01/11 01:15:18;;;;;;;;;;;;;;;0.3;93.96191;103074.1;;;;-84
2022/01/11 01:20:15;;;;;;;;;;;;;;;0.26;93.9541;103066.6;;;;-85
2022/01/11 01:25:14;;;;;;;;;;;;;;;0.26;93.9668;103083.6;;;;-85
2022/01/11 01:30:14;;;;;;;;;;;;;;;0.25;93.96289;103096.8;;;;-84
2022/01/11 01:34:33;;;;;;;18.5;6.7;;;;;;;;;;;;;-84
2022/01/11 01:35:14;;;;;;;;;;;;;;;0.25;93.96289;103090.4;;;;-85
2022/01/11 01:40:17;;;;;;;;;;;;;;;0.23;93.91406;103097.8;;;;-85
2022/01/11 01:45:15;;;;;;;;;;;;;;;0.21;93.91211;103111.5;;;;-85
2022/01/11 01:50:14;;;;;;;;;;;;;;;0.2;93.91895;103123.1;;;;-82
2022/01/11 01:55:14;;;;;;;;;;;;;;;0.18;93.88379;103121.5;;;;-84
2022/01/11 02:00:16;;;;;;;;;;;;;;;0.16;93.86719;103115.3;;;;-83
2022/01/11 02:04:33;;;;;;;20.4;6.8;;;;;;;;;;;;;-82
2022/01/11 02:05:14;;;;;;;;;;;;;;;0.15;93.86523;103120.2;;;;-83
2022/01/11 02:10:16;;;;;;;;;;;;;;;0.12;93.87012;103119.5;;;;-83
2022/01/11 02:15:15;;;;;;;;;;;;;;;0.1;93.86621;103116;;;;-83
2022/01/11 02:20:18;;;;;;;;;;;;;;;0.09;93.875;103109.7;;;;-83
2022/01/11 02:25:14;;;;;;;;;;;;;;;0.06;93.87988;103114.9;;;;-84
2022/01/11 02:30:15;;;;;;;;;;;;;;;0.06;93.86914;103119.6;;;;-83
2022/01/11 02:34:37;;;;;;;20;6.8;;;;;;;;;;;;;-83
2022/01/11 02:35:14;;;;;;;;;;;;;;;0.05;93.86523;103126;;;;-83
2022/01/11 02:40:16;;;;;;;;;;;;;;;0.04;93.88477;103116.2;;;;-84
2022/01/11 02:45:20;;;;;;;;;;;;;;;0.04;93.89551;103113.5;;;;-84
2022/01/11 02:50:14;;;;;;;;;;;;;;;0.04;93.89551;103118.2;;;;-84
2022/01/11 02:55:16;;;;;;;;;;;;;;;0.04;93.90625;103115.7;;;;-83
2022/01/11 03:00:15;;;;;;;;;;;;;;;0.03;93.89355;103118.2;;;;-83
2022/01/11 03:04:34;;;;;;;18.2;6.6;;;;;;;;;;;;;-84
2022/01/11 03:05:15;;;;;;;;;;;;;;;0.04;93.91699;103131.7;;;;-83
2022/01/11 03:10:22;;;;;;;;;;;;;;;0.03;93.89551;103144.9;;;;-83
2022/01/11 03:15:15;;;;;;;;;;;;;;;0.04;93.92773;103142;;;;-86
2022/01/11 03:20:15;;;;;;;;;;;;;;;0.06;93.93164;103136.6;;;;-84
2022/01/11 03:25:14;;;;;;;;;;;;;;;0.07;93.92285;103134.6;;;;-82
2022/01/11 03:30:15;;;;;;;;;;;;;;;0.08;93.91602;103137.2;;;;-84
2022/01/11 03:34:30;;;;;;;21.4;7.2;;;;;;;;;;;;;-84
2022/01/11 03:35:15;;;;;;;;;;;;;;;0.09;93.92871;103134.3;;;;-84
2022/01/11 03:40:16;;;;;;;;;;;;;;;0.09;93.9502;103120.2;;;;-83
2022/01/11 03:45:15;;;;;;;;;;;;;;;0.09;93.96094;103119.7;;;;-84
2022/01/11 03:50:15;;;;;;;;;;;;;;;0.1;93.99316;103126.3;;;;-84
2022/01/11 03:55:21;;;;;;;;;;;;;;;0.12;94.03125;103134.1;;;;-84
2022/01/11 04:00:16;;;;;;;;;;;;;;;0.13;94.01367;103134.1;;;;-83
2022/01/11 04:04:31;;;;;;;20.6;7.1;;;;;;;;;;;;;-83
2022/01/11 04:05:14;;;;;;;;;;;;;;;0.14;94.03516;103140.3;;;;-82
2022/01/11 04:10:14;;;;;;;;;;;;;;;0.16;94.04004;103147.8;;;;-83
2022/01/11 04:15:21;;;;;;;;;;;;;;;0.18;94.05469;103144.4;;;;-84
2022/01/11 04:20:14;;;;;;;;;;;;;;;0.18;94.06738;103140.7;;;;-84
2022/01/11 04:25:20;;;;;;;;;;;;;;;0.21;94.08398;103140.3;;;;-84
2022/01/11 04:30:15;;;;;;;;;;;;;;;0.2;94.07129;103141.2;;;;-83
2022/01/11 04:34:29;;;;;;;22.7;8.2;;;;;;;;;;;;;-82
2022/01/11 04:35:16;;;;;;;;;;;;;;;0.22;94.0752;103145;;;;-83
2022/01/11 04:40:15;;;;;;;;;;;;;;;0.23;94.06836;103146.4;;;;-85
2022/01/11 04:45:15;;;;;;;;;;;;;;;0.24;94.08984;103143.1;;;;-84
2022/01/11 04:50:14;;;;;;;;;;;;;;;0.25;94.10449;103140.3;;;;-83
2022/01/11 04:55:15;;;;;;;;;;;;;;;0.26;94.0957;103143;;;;-83
2022/01/11 05:00:15;;;;;;;;;;;;;;;0.28;94.12988;103149.5;;;;-83
2022/01/11 05:04:28;;;;;;;33;9.6;;;;;;;;;;;;;-83
2022/01/11 05:05:15;;;;;;;;;;;;;;;0.29;94.13379;103148.3;;;;-84
2022/01/11 05:10:14;;;;;;;;;;;;;;;0.3;94.12598;103150.3;;;;-83
2022/01/11 05:15:15;;;;;;;;;;;;;;;0.33;94.1416;103155.2;;;;-83
2022/01/11 05:20:15;;;;;;;;;;;;;;;0.33;94.13184;103154.6;;;;-84
2022/01/11 05:25:15;;;;;;;;;;;;;;;0.34;94.13379;103154.5;;;;-84
2022/01/11 05:30:15;;;;;;;;;;;;;;;0.34;94.14453;103148;;;;-84
2022/01/11 05:34:27;;;;;;;32.8;9.9;;;;;;;;;;;;;-83
2022/01/11 05:35:15;;;;;;;;;;;;;;;0.34;94.15527;103145.8;;;;-83
2022/01/11 05:40:15;;;;;;;;;;;;;;;0.34;94.15527;103147.9;;;;-83
2022/01/11 05:45:15;;;;;;;;;;;;;;;0.35;94.13574;103150.4;;;;-84
2022/01/11 05:50:15;;;;;;;;;;;;;;;0.34;94.14453;103154.1;;;;-83
2022/01/11 05:55:15;;;;;;;;;;;;;;;0.33;94.12305;103156.1;;;;-83
2022/01/11 06:00:15;;;;;;;;;;;;;;;0.34;94.15527;103172.7;;;;-83
2022/01/11 06:04:26;;;;;;;34.3;9.5;;;;;;;;;;;;;-83
2022/01/11 06:05:16;;;;;;;;;;;;;;;0.33;94.15527;103176.4;;;;-84
2022/01/11 06:10:15;;;;;;;;;;;;;;;0.34;94.14453;103186.4;;;;-84
2022/01/11 06:15:14;;;;;;;;;;;;;;;0.34;94.14453;103191.9;;;;-85
2022/01/11 06:20:15;;;;;;;;;;;;;;;0.36;94.09473;103195.3;;;;-84
2022/01/11 06:25:14;;;;;;;;;;;;;;;0.37;94.08594;103202.6;;;;-85
2022/01/11 06:30:15;;;;;;;;;;;;;;;0.35;94.0498;103191.9;;;;-85
2022/01/11 06:34:24;;;;;;;30.2;9.8;;;;;;;;;;;;;-83
2022/01/11 06:35:15;;;;;;;;;;;;;;;0.36;94.07324;103181.4;;;;-83
2022/01/11 06:40:16;;;;;;;;;;;;;;;0.36;94.06445;103187;;;;-83
2022/01/11 06:45:15;;;;;;;;;;;;;;;0.36;94.08398;103189.9;;;;-84
2022/01/11 06:50:14;;;;;;;;;;;;;;;0.35;94.10352;103201.8;;;;-83
2022/01/11 06:55:15;;;;;;;;;;;;;;;0.35;94.125;103206.4;;;;-84
2022/01/11 07:00:15;;;;;;;;;;;;;;;0.34;94.13379;103214.7;;;;-84
2022/01/11 07:04:24;;;;;;;32.7;10.1;;;;;;;;;;;;;-83
2022/01/11 07:05:20;;;;;;;;;;;;;;;0.34;94.12305;103227.7;;;;-83
2022/01/11 07:10:15;;;;;;;;;;;;;;;0.34;94.11133;103227.5;;;;-84
2022/01/11 07:15:15;;;;;;;;;;;;;;;0.33;94.10156;103229.9;;;;-84
2022/01/11 07:20:15;;;;;;;;;;;;;;;0.31;94.11719;103225.9;;;;-85
2022/01/11 07:25:14;;;;;;;;;;;;;;;0.29;94.12305;103224.7;;;;-84
2022/01/11 07:30:14;;;;;;;;;;;;;;;0.28;94.11035;103227.9;;;;-84
2022/01/11 07:34:22;;;;;;;31.8;9.8;;;;;;;;;;;;;-84
2022/01/11 07:35:14;;;;;;;;;;;;;;;0.25;94.08301;103237.1;;;;-84
2022/01/11 07:40:18;;;;;;;;;;;;;;;0.22;94.07324;103232.3;;;;-84
2022/01/11 07:45:19;;;;;;;;;;;;;;;0.18;94.07813;103229.2;;;;-84
2022/01/11 07:50:15;;;;;;;;;;;;;;;0.16;94.04004;103240.7;;;;-84
2022/01/11 07:55:15;;;;;;;;;;;;;;;0.13;94.05469;103241.8;;;;-84
2022/01/11 08:00:14;;;;;;;;;;;;;;;0.11;94.00781;103249.2;;;;-84
2022/01/11 08:04:22;;;;;;;28.7;9.1;;;;;;;;;;;;;-84
2022/01/11 08:05:15;;;;;;;;;;;;;;;0.08;94.02148;103242.7;;;;-84
2022/01/11 08:10:18;;;;;;;;;;;;;;;0.06;93.99805;103256.9;;;;-84
2022/01/11 08:15:15;;;;;;;;;;;;;;;0.03;93.95996;103256.7;;;;-83
2022/01/11 08:20:15;;;;;;;;;;;;;;;0.01;93.9541;103257.5;;;;-84
2022/01/11 08:25:15;;;;;;;;;;;;;;;-0.02;93.93555;103264.9;;;;-83
2022/01/11 08:30:15;;;;;;;;;;;;;;;-0.05;93.93066;103266.6;;;;-84
2022/01/11 08:34:22;;;;;;;20.6;7.7;;;;;;;;;;;;;-80
2022/01/11 08:35:15;;;;;;;;;;;;;;;-0.06;93.90527;103277.4;;;;-82
2022/01/11 08:40:14;;;;;;;;;;;;;;;-0.07;93.91211;103286.2;;;;-83
2022/01/11 08:45:18;;;;;;;;;;;;;;;-0.09;93.87793;103279.3;;;;-83
2022/01/11 08:50:14;;;;;;;;;;;;;;;-0.1;93.86328;103280.9;;;;-83
2022/01/11 08:55:15;;;;;;;;;;;;;;;-0.11;93.86328;103274.9;;;;-82
2022/01/11 09:00:18;;;;;;;;;;;;;;;-0.12;93.88281;103271.7;;;;-83
2022/01/11 09:04:21;;;;;;;22.2;7.4;;;;;;;;;;;;;-82
2022/01/11 09:05:14;;;;;;;;;;;;;;;-0.12;93.89355;103264.9;;;;-83
2022/01/11 09:10:14;;;;;;;;;;;;;;;-0.1;93.88672;103277.6;;;;-84
2022/01/11 09:15:14;;;;;;;;;;;;;;;-0.05;93.85156;103289;;;;-83
2022/01/11 09:20:16;;;;;;;;;;;;;;;0.01;93.80371;103297.1;;;;-83
2022/01/11 09:25:15;;;;;;;;;;;;;;;0.07;93.68652;103287.8;;;;-82
2022/01/11 09:30:16;;;;;;;;;;;;;;;0.17;93.6543;103288.5;;;;-83
2022/01/11 09:34:19;;;;;;;21.7;7.7;;;;;;;;;;;;;-84
2022/01/11 09:35:14;;;;;;;;;;;;;;;0.26;93.55762;103293.4;;;;-83
2022/01/11 09:40:15;;;;;;;;;;;;;;;0.26;93.34082;103292.5;;;;-84
2022/01/11 09:45:18;;;;;;;;;;;;;;;0.28;93.43066;103291.2;;;;-84
2022/01/11 09:50:15;;;;;;;;;;;;;;;0.32;93.75293;103288.4;;;;-84
2022/01/11 09:55:16;;;;;;;;;;;;;;;0.37;93.6875;103287.1;;;;-83
2022/01/11 10:00:15;;;;;;;;;;;;;;;0.44;93.68164;103287;;;;-84
2022/01/11 10:04:21;;;;;;;19.8;7.7;;;;;;;;;;;;;-83
2022/01/11 10:05:18;;;;;;;;;;;;;;;0.5;93.70508;103297.1;;;;-84
2022/01/11 10:10:15;;;;;;;;;;;;;;;0.58;93.83203;103303.8;;;;-84
2022/01/11 10:15:16;;;;;;;;;;;;;;;0.69;93.6709;103303;;;;-83
2022/01/11 10:20:17;;;;;;;;;;;;;;;0.84;93.32813;103301.3;;;;-85
2022/01/11 10:25:14;;;;;;;;;;;;;;;0.96;93.09473;103310.6;;;;-83
2022/01/11 10:30:16;;;;;;;;;;;;;;;1.03;92.9082;103313.6;;;;-83
2022/01/11 10:34:18;;;;;;;24.2;7.8;;;;;;;;;;;;;-83
2022/01/11 10:35:15;;;;;;;;;;;;;;;1.08;92.77539;103309;;;;-82
2022/01/11 10:40:17;;;;;;;;;;;;;;;1.13;92.66699;103314.6;;;;-83
2022/01/11 10:45:20;;;;;;;;;;;;;;;1.22;92.64355;103307.9;;;;-83
2022/01/11 10:50:18;;;;;;;;;;;;;;;1.36;92.65332;103316.8;;;;-83
2022/01/11 10:55:16;;;;;;;;;;;;;;;1.46;92.24316;103320.7;;;;-83
2022/01/11 11:00:18;;;;;;;;;;;;;;;1.59;91.97949;103319.5;;;;-83
2022/01/11 11:04:29;;;;;;;21.8;7.8;;;;;;;;;;;;;-83
2022/01/11 11:05:23;;;;;;;;;;;;;;;1.75;91.82031;103320.6;;;;-83
2022/01/11 11:10:15;;;;;;;;;;;;;;;1.87;91.62012;103325.2;;;;-83
2022/01/11 11:15:14;;;;;;;;;;;;;;;1.93;91.28418;103325.9;;;;-84
2022/01/11 11:20:14;;;;;;;;;;;;;;;1.98;91.20898;103329.4;;;;-85
2022/01/11 11:25:14;;;;;;;;;;;;;;;2.03;91.07813;103331.3;;;;-82
2022/01/11 11:30:16;;;;;;;;;;;;;;;2.1;90.97656;103326.3;;;;-83
2022/01/11 11:34:19;;;;;;;18.6;7.2;;;;;;;;;;;;;-83
2022/01/11 11:35:16;;;;;;;;;;;;;;;2.25;90.78027;103321.3;;;;-83
2022/01/11 11:40:17;;;;;;;;;;;;;;;2.41;90.59863;103320.6;;;;-82
2022/01/11 11:45:26;;;;;;;;;;;;;;;2.58;90.44922;103322;;;;-83
2022/01/11 11:50:17;;;;;;;;;;;;;;;2.73;90.13281;103326.2;;;;-83
2022/01/11 11:55:23;;;;;;;;;;;;;;;2.88;90.02441;103314.3;;;;-83
2022/01/11 12:00:19;;;;;;;;;;;;;;;3.03;89.77344;103315;;;;-83
2022/01/11 12:04:19;;;;;;;18.6;7;;;;;;;;;;;;;-82
2022/01/11 12:05:15;;;;;;;;;;;;;;;3.13;89.39453;103309.3;;;;-83
2022/01/11 12:10:19;;;;;;;;;;;;;;;3.18;89.1875;103303.8;;;;-84
2022/01/11 12:15:31;;;;;;;;;;;;;;;3.2;88.93066;103301.5;;;;-83
2022/01/11 12:20:15;;;;;;;;;;;;;;;3.21;88.90039;103297.2;;;;-85
2022/01/11 12:25:24;;;;;;;;;;;;;;;3.23;88.85156;103297;;;;-83
2022/01/11 12:30:21;;;;;;;;;;;;;;;3.25;88.76855;103297;;;;-83
2022/01/11 12:34:16;;;;;;;16.6;6.2;;;;;;;;;;;;;-83
2022/01/11 12:35:15;;;;;;;;;;;;;;;3.29;88.60254;103295.1;;;;-83
2022/01/11 12:40:25;;;;;;;;;;;;;;;3.31;88.62793;103288.4;;;;-83
2022/01/11 12:50:17;;;;;;;;;;;;;;;3.38;88.54492;103285.3;;;;-83
2022/01/11 12:55:15;;;;;;;;;;;;;;;3.4;88.55078;103282;;;;-82
2022/01/11 13:00:15;;;;;;;;;;;;;;;3.41;88.10742;103279.2;;;;-82
2022/01/11 13:04:17;;;;;;;16.6;6.7;;;;;;;;;;;;;-80
2022/01/11 13:05:17;;;;;;;;;;;;;;;3.45;88.33203;103279.1;;;;-82
2022/01/11 13:10:16;;;;;;;;;;;;;;;3.55;88.08105;103271.9;;;;-82
2022/01/11 13:15:18;;;;;;;;;;;;;;;3.61;87.8877;103272;;;;-81
2022/01/11 13:20:14;;;;;;;;;;;;;;;3.65;87.79785;103266.3;;;;-80
2022/01/11 13:25:17;;;;;;;;;;;;;;;3.68;87.83594;103264.7;;;;-84
2022/01/11 13:30:14;;;;;;;;;;;;;;;3.7;87.64355;103267;;;;-81
2022/01/11 13:34:18;;;;;;;17.1;6.6;;;;;;;;;;;;;-82
2022/01/11 13:35:18;;;;;;;;;;;;;;;3.72;87.78906;103276.4;;;;-82
2022/01/11 13:40:18;;;;;;;;;;;;;;;3.73;87.72559;103275.9;;;;-81
2022/01/11 13:45:14;;;;;;;;;;;;;;;3.75;87.70898;103284.6;;;;-80
2022/01/11 13:50:14;;;;;;;;;;;;;;;3.77;87.81934;103285.2;;;;-82
2022/01/11 13:55:18;;;;;;;;;;;;;;;3.79;87.73828;103280.2;;;;-80
2022/01/11 14:00:19;;;;;;;;;;;;;;;3.81;87.85059;103289.5;;;;-82
2022/01/11 14:04:17;;;;;;;14.6;6.2;;;;;;;;;;;;;-83
2022/01/11 14:05:16;;;;;;;;;;;;;;;3.83;87.91992;103301.1;;;;-83
2022/01/11 14:10:16;;;;;;;;;;;;;;;3.86;87.8291;103316.9;;;;-84
2022/01/11 14:15:14;;;;;;;;;;;;;;;3.88;87.7998;103313.5;;;;-83
2022/01/11 14:20:15;;;;;;;;;;;;;;;3.89;87.74805;103316.9;;;;-84
2022/01/11 14:25:15;;;;;;;;;;;;;;;3.91;87.67578;103323.8;;;;-82
2022/01/11 14:30:19;;;;;;;;;;;;;;;3.91;87.72949;103323.3;;;;-83
2022/01/11 14:34:17;;;;;;;14.6;6.4;;;;;;;;;;;;;-82
2022/01/11 14:35:14;;;;;;;;;;;;;;;3.9;87.67383;103320.4;;;;-82
2022/01/11 14:40:28;;;;;;;;;;;;;;;3.86;87.53613;103322.5;;;;-80
2022/01/11 14:45:18;;;;;;;;;;;;;;;3.82;87.44141;103328.9;;;;-81
2022/01/11 14:50:17;;;;;;;;;;;;;;;3.77;87.72168;103321.8;;;;-80
2022/01/11 14:55:17;;;;;;;;;;;;;;;3.72;87.93164;103316.6;;;;-81
2022/01/11 15:00:23;;;;;;;;;;;;;;;3.67;88.00781;103320.9;;;;-81
2022/01/11 15:04:17;;;;;;;18.8;6.9;;;;;;;;;;;;;-80
2022/01/11 15:05:23;;;;;;;;;;;;;;;3.61;88.16992;103321.8;;;;-80
2022/01/11 15:10:14;;;;;;;;;;;;;;;3.57;88.6709;103329.1;;;;-80
2022/01/11 15:15:14;;;;;;;;;;;;;;;3.51;89.04004;103330.1;;;;-81
2022/01/11 15:20:15;;;;;;;;;;;;;;;3.44;89.20898;103331.6;;;;-83
2022/01/11 15:25:15;;;;;;;;;;;;;;;3.38;89.54297;103344.3;;;;-85
2022/01/11 15:30:15;;;;;;;;;;;;;;;3.31;89.85352;103350.7;;;;-83
2022/01/11 15:34:14;;;;;;;15.7;6.7;;;;;;;;;;;;;-82
2022/01/11 15:35:13;;;;;;;;;;;;;;;3.21;89.7373;103350.7;;;;-82
2022/01/11 15:40:14;;;;;;;;;;;;;;;3.14;89.79785;103357.6;;;;-81
2022/01/11 15:45:14;;;;;;;;;;;;;;;3.06;89.90039;103364;;;;-82
2022/01/11 15:50:15;;;;;;;;;;;;;;;3.01;90.04004;103365;;;;-83
2022/01/11 15:55:14;;;;;;;;;;;;;;;2.96;90.28027;103365.3;;;;-81
2022/01/11 16:00:14;;;;;;;;;;;;;;;2.92;90.31641;103377;;;;-82
2022/01/11 16:04:13;;;;;;;15.6;6;;;;;;;;;;;;;-83
2022/01/11 16:05:14;;;;;;;;;;;;;;;2.88;90.41504;103380.8;;;;-83
2022/01/11 16:10:14;;;;;;;;;;;;;;;2.85;90.50684;103387.7;;;;-84
2022/01/11 16:15:14;;;;;;;;;;;;;;;2.84;90.57813;103390.9;;;;-82
2022/01/11 16:20:14;;;;;;;;;;;;;;;2.81;90.62695;103389;;;;-84
2022/01/11 16:25:14;;;;;;;;;;;;;;;2.82;90.66113;103384.8;;;;-82
2022/01/11 16:30:24;;;;;;;;;;;;;;;2.82;90.72852;103387.8;;;;-84
2022/01/11 16:34:13;;;;;;;18.5;6.5;;;;;;;;;;;;;-82
2022/01/11 16:35:14;;;;;;;;;;;;;;;2.83;90.73047;103389.2;;;;-81
2022/01/11 16:42:37;;;;;;;;;;;;;;;2.84;90.7207;103387.5;;;;-82
2022/01/11 16:45:17;;;;;;;;;;;;;;;2.86;90.72461;103392.4;;;;-84
2022/01/11 16:50:15;;;;;;;;;;;;;;;2.87;90.70703;103390.9;;;;-83
2022/01/11 16:55:14;;;;;;;;;;;;;;;2.89;90.71973;103389.5;;;;-84
2022/01/11 17:00:15;;;;;;;;;;;;;;;2.92;90.7041;103385.8;;;;-83
2022/01/11 17:04:12;;;;;;;18.7;7.2;;;;;;;;;;;;;-82
2022/01/11 17:05:14;;;;;;;;;;;;;;;2.93;90.69727;103382.5;;;;-82
2022/01/11 17:10:17;;;;;;;;;;;;;;;2.94;90.70996;103383.9;;;;-84
2022/01/11 17:15:14;;;;;;;;;;;;;;;2.96;90.69238;103393;;;;-83
2022/01/11 17:20:15;;;;;;;;;;;;;;;2.97;90.66113;103398.5;;;;-82
2022/01/11 17:25:17;;;;;;;;;;;;;;;2.99;90.69727;103407.4;;;;-82
2022/01/11 17:30:16;;;;;;;;;;;;;;;3;90.71289;103403.9;;;;-82
2022/01/11 17:34:12;;;;;;;20.6;6.9;;;;;;;;;;;;;-82
2022/01/11 17:35:14;;;;;;;;;;;;;;;3.01;90.70117;103404.9;;;;-82
2022/01/11 17:40:15;;;;;;;;;;;;;;;3.03;90.70703;103409.3;;;;-83
2022/01/11 17:45:15;;;;;;;;;;;;;;;3.06;90.70215;103415.7;;;;-82
2022/01/11 17:50:14;;;;;;;;;;;;;;;3.07;90.69531;103423.8;;;;-84
2022/01/11 17:55:17;;;;;;;;;;;;;;;3.1;90.69043;103430;;;;-84
2022/01/11 18:00:14;;;;;;;;;;;;;;;3.11;90.67969;103425.4;;;;-85
2022/01/11 18:04:22;;;;;;;19.2;6.9;;;;;;;;;;;;;-85
2022/01/11 18:05:17;;;;;;;;;;;;;;;3.13;90.72852;103429.7;;;;-85
2022/01/11 18:10:18;;;;;;;;;;;;;;;3.15;90.71094;103430.4;;;;-85
2022/01/11 18:15:23;;;;;;;;;;;;;;;3.16;90.75586;103435.1;;;;-85
2022/01/11 18:20:16;;;;;;;;;;;;;;;3.17;90.74707;103440.9;;;;-85
2022/01/11 18:25:15;;;;;;;;;;;;;;;3.18;90.77051;103438.6;;;;-84
2022/01/11 18:30:15;;;;;;;;;;;;;;;3.19;90.77246;103440.6;;;;-83
2022/01/11 18:34:11;;;;;;;20.8;7.3;;;;;;;;;;;;;-82
2022/01/11 18:35:14;;;;;;;;;;;;;;;3.2;90.81738;103444.4;;;;-82
2022/01/11 18:40:15;;;;;;;;;;;;;;;3.21;90.79785;103449.8;;;;-83
2022/01/11 18:45:18;;;;;;;;;;;;;;;3.21;90.8418;103456.7;;;;-84
2022/01/11 18:50:14;;;;;;;;;;;;;;;3.22;90.88867;103459.3;;;;-83
2022/01/11 18:55:15;;;;;;;;;;;;;;;3.23;90.91016;103461.2;;;;-82
2022/01/11 19:00:15;;;;;;;;;;;;;;;3.22;90.93164;103458;;;;-84
2022/01/11 19:04:11;;;;;;;19.8;7.7;;;;;;;;;;;;;-83
2022/01/11 19:05:15;;;;;;;;;;;;;;;3.23;90.92285;103463.4;;;;-84
2022/01/11 19:10:14;;;;;;;;;;;;;;;3.24;90.93359;103472.7;;;;-83
2022/01/11 19:15:14;;;;;;;;;;;;;;;3.24;90.98828;103479.4;;;;-84
2022/01/11 19:20:14;;;;;;;;;;;;;;;3.25;90.95898;103484.5;;;;-84
2022/01/11 19:25:15;;;;;;;;;;;;;;;3.24;91.01172;103485.5;;;;-84
2022/01/11 19:30:15;;;;;;;;;;;;;;;3.25;91.06738;103487.3;;;;-83
2022/01/11 19:34:12;;;;;;;20.6;7.5;;;;;;;;;;;;;-84
2022/01/11 19:35:14;;;;;;;;;;;;;;;3.25;91.11133;103495.8;;;;-84
2022/01/11 19:40:17;;;;;;;;;;;;;;;3.25;91.14355;103503.9;;;;-83
2022/01/11 19:45:16;;;;;;;;;;;;;;;3.24;91.16309;103507.4;;;;-84
2022/01/11 19:50:15;;;;;;;;;;;;;;;3.25;91.19824;103508.3;;;;-83
2022/01/11 19:55:14;;;;;;;;;;;;;;;3.24;91.29102;103510.8;;;;-83
2022/01/11 20:00:15;;;;;;;;;;;;;;;3.24;91.35645;103512.6;;;;-84
2022/01/11 20:04:11;;;;;;;20.7;8.1;;;;;;;;;;;;;-83
2022/01/11 20:05:16;;;;;;;;;;;;;;;3.23;91.41113;103516.1;;;;-83
2022/01/11 20:10:15;;;;;;;;;;;;;;;3.23;91.51953;103517.6;;;;-84
2022/01/11 20:15:14;;;;;;;;;;;;;;;3.22;91.59082;103515;;;;-84
2022/01/11 20:20:15;;;;;;;;;;;;;;;3.22;91.65625;103518.8;;;;-83
2022/01/11 20:30:15;;;;;;;;;;;;;;;3.21;91.79492;103519.8;;;;-84
2022/01/11 20:34:11;;;;;;;20.2;7.8;;;;;;;;;;;;;-84
2022/01/11 20:35:14;;;;;;;;;;;;;;;3.21;91.86035;103523.3;;;;-85
2022/01/11 20:40:19;;;;;;;;;;;;;;;3.2;91.90137;103522.5;;;;-83
2022/01/11 20:45:14;;;;;;;;;;;;;;;3.19;91.96484;103521.6;;;;-84
2022/01/11 20:50:29;;;;;;;;;;;;;;;3.19;92.01855;103525.4;;;;-82
2022/01/11 20:55:14;;;;;;;;;;;;;;;3.19;92.0166;103532.2;;;;-84
2022/01/11 21:00:17;;;;;;;;;;;;;;;3.18;92.08203;103531.1;;;;-84
2022/01/11 21:04:10;;;;;;;23;7.9;;;;;;;;;;;;;-84
2022/01/11 21:05:15;;;;;;;;;;;;;;;3.19;92.1582;103533.4;;;;-83
2022/01/11 21:10:15;;;;;;;;;;;;;;;3.18;92.21191;103535.5;;;;-83
2022/01/11 21:15:25;;;;;;;;;;;;;;;3.19;92.24414;103547.2;;;;-83
2022/01/11 21:20:14;;;;;;;;;;;;;;;3.19;92.28809;103539.9;;;;-83
2022/01/11 21:25:14;;;;;;;;;;;;;;;3.19;92.30957;103541.7;;;;-80
2022/01/11 21:30:15;;;;;;;;;;;;;;;3.18;92.3418;103545.8;;;;-81
2022/01/11 21:34:08;;;;;;;20.8;8.3;;;;;;;;;;;;;-82
2022/01/11 21:35:15;;;;;;;;;;;;;;;3.19;92.35254;103546.4;;;;-81
2022/01/11 21:40:15;;;;;;;;;;;;;;;3.19;92.3877;103550.5;;;;-83
2022/01/11 21:45:14;;;;;;;;;;;;;;;3.19;92.3877;103548.2;;;;-80
2022/01/11 21:50:15;;;;;;;;;;;;;;;3.2;92.41113;103554.8;;;;-83
2022/01/11 21:55:16;;;;;;;;;;;;;;;3.19;92.44141;103545.5;;;;-83
2022/01/11 22:00:14;;;;;;;;;;;;;;;3.2;92.45605;103546.1;;;;-84
2022/01/11 22:04:17;;;;;;;21.2;8.4;;;;;;;;;;;;;-85
2022/01/11 22:05:14;;;;;;;;;;;;;;;3.21;92.52148;103548.4;;;;-84
2022/01/11 22:10:20;;;;;;;;;;;;;;;3.21;92.54492;103549.5;;;;-83
2022/01/11 22:15:42;;;;;;;;;;;;;;;3.22;92.53418;103546.3;;;;-84
2022/01/11 22:20:12;;;;;;;;;;;;;;;3.22;92.5791;103554.9;;;;-84
2022/01/11 22:25:14;;;;;;;;;;;;;;;3.23;92.58105;103557.9;;;;-85
2022/01/11 22:30:16;;;;;;;;;;;;;;;3.23;92.57031;103552.7;;;;-84
2022/01/11 22:34:08;;;;;;;24.8;8.7;;;;;;;;;;;;;-84
2022/01/11 22:35:14;;;;;;;;;;;;;;;3.24;92.6377;103547.6;;;;-83
2022/01/11 22:40:15;;;;;;;;;;;;;;;3.25;92.62891;103555.3;;;;-84
2022/01/11 22:45:14;;;;;;;;;;;;;;;3.26;92.61816;103563.9;;;;-84
2022/01/11 22:50:15;;;;;;;;;;;;;;;3.27;92.61133;103577.4;;;;-84
2022/01/11 22:55:14;;;;;;;;;;;;;;;3.27;92.62207;103593.2;;;;-84
2022/01/11 23:00:16;;;;;;;;;;;;;;;3.28;92.60156;103609.6;;;;-84
2022/01/11 23:04:07;;;;;;;22.9;8.6;;;;;;;;;;;;;-84
2022/01/11 23:05:16;;;;;;;;;;;;;;;3.29;92.60449;103610.3;;;;-84
2022/01/11 23:10:14;;;;;;;;;;;;;;;3.3;92.64941;103614.9;;;;-85
2022/01/11 23:15:14;;;;;;;;;;;;;;;3.3;92.68359;103617.3;;;;-85
2022/01/11 23:20:15;;;;;;;;;;;;;;;3.31;92.61914;103606;;;;-85
2022/01/11 23:25:14;;;;;;;;;;;;;;;3.32;92.57715;103608.5;;;;-85
2022/01/11 23:30:14;;;;;;;;;;;;;;;3.32;92.55566;103627.2;;;;-84
2022/01/11 23:34:08;;;;;;;22.2;8.4;;;;;;;;;;;;;-84
2022/01/11 23:35:14;;;;;;;;;;;;;;;3.33;92.5166;103640.2;;;;-84
2022/01/11 23:50:17;;;;;;;;;;;;;;;3.35;92.61719;103644.7;;;;-85
2022/01/11 23:55:21;;;;;;;;;;;;;;;3.36;92.56543;103633;;;;-85
